sensor_id;sensor_type;location;lat;lon;timestamp;P1;durP1;ratioP1;P2;durP2;ratioP2
6207;SDS011;3137;51.550;7.060;2023-12-29T00:00:47;4.00;;;2.53;;
6207;SDS011;3137;51.550;7.060;2023-12-29T00:03:13;3.37;;;1.87;;
6207;SDS011;3137;51.550;7.060;2023-12-29T00:05:40;7.37;;;2.07;;
6207;SDS011;3137;51.550;7.060;2023-12-29T00:08:06;6.70;;;2.23;;
6207;SDS011;3137;51.550;7.060;2023-12-29T00:10:33;3.93;;;2.57;;
6207;SDS011;3137;51.550;7.060;2023-12-29T00:13:00;3.77;;;2.90;;
6207;SDS011;3137;51.550;7.060;2023-12-29T00:15:26;7.33;;;3.37;;
6207;SDS011;3137;51.550;7.060;2023-12-29T00:17:53;4.50;;;2.60;;
6207;SDS011;3137;51.550;7.060;2023-12-29T00:20:19;3.87;;;2.53;;
6207;SDS011;3137;51.550;7.060;2023-12-29T00:23:03;4.43;;;2.10;;
6207;SDS011;3137;51.550;7.060;2023-12-29T00:25:30;3.93;;;2.50;;
6207;SDS011;3137;51.550;7.060;2023-12-29T00:27:56;3.03;;;2.67;;
6207;SDS011;3137;51.550;7.060;2023-12-29T00:30:23;3.50;;;2.53;;
6207;SDS011;3137;51.550;7.060;2023-12-29T00:33:04;3.33;;;2.17;;
6207;SDS011;3137;51.550;7.060;2023-12-29T00:35:30;3.47;;;2.50;;
6207;SDS011;3137;51.550;7.060;2023-12-29T00:37:57;10.50;;;2.63;;
6207;SDS011;3137;51.550;7.060;2023-12-29T00:40:23;11.40;;;3.23;;
6207;SDS011;3137;51.550;7.060;2023-12-29T00:42:50;2.57;;;2.47;;
6207;SDS011;3137;51.550;7.060;2023-12-29T00:45:16;4.60;;;2.83;;
6207;SDS011;3137;51.550;7.060;2023-12-29T00:47:42;5.20;;;2.47;;
6207;SDS011;3137;51.550;7.060;2023-12-29T00:50:10;13.97;;;1.73;;
6207;SDS011;3137;51.550;7.060;2023-12-29T00:52:36;3.67;;;2.40;;
6207;SDS011;3137;51.550;7.060;2023-12-29T00:55:03;5.30;;;3.00;;
6207;SDS011;3137;51.550;7.060;2023-12-29T00:57:30;4.30;;;2.70;;
6207;SDS011;3137;51.550;7.060;2023-12-29T00:59:56;2.87;;;2.00;;
6207;SDS011;3137;51.550;7.060;2023-12-29T01:02:23;4.63;;;2.47;;
6207;SDS011;3137;51.550;7.060;2023-12-29T01:04:49;7.50;;;2.20;;
6207;SDS011;3137;51.550;7.060;2023-12-29T01:07:16;4.03;;;2.37;;
6207;SDS011;3137;51.550;7.060;2023-12-29T01:09:42;2.87;;;2.67;;
6207;SDS011;3137;51.550;7.060;2023-12-29T01:12:09;23.47;;;2.60;;
6207;SDS011;3137;51.550;7.060;2023-12-29T01:14:35;6.83;;;2.07;;
6207;SDS011;3137;51.550;7.060;2023-12-29T01:17:02;2.10;;;2.00;;
6207;SDS011;3137;51.550;7.060;2023-12-29T01:19:29;2.70;;;2.50;;
6207;SDS011;3137;51.550;7.060;2023-12-29T01:21:56;5.60;;;2.53;;
6207;SDS011;3137;51.550;7.060;2023-12-29T01:24:22;6.20;;;2.80;;
6207;SDS011;3137;51.550;7.060;2023-12-29T01:26:58;7.97;;;2.60;;
6207;SDS011;3137;51.550;7.060;2023-12-29T01:29:24;10.53;;;2.23;;
6207;SDS011;3137;51.550;7.060;2023-12-29T01:31:51;2.20;;;1.97;;
6207;SDS011;3137;51.550;7.060;2023-12-29T01:34:17;10.83;;;2.90;;
6207;SDS011;3137;51.550;7.060;2023-12-29T01:36:44;4.47;;;2.30;;
6207;SDS011;3137;51.550;7.060;2023-12-29T01:39:10;4.90;;;2.67;;
6207;SDS011;3137;51.550;7.060;2023-12-29T01:41:37;2.43;;;2.23;;
6207;SDS011;3137;51.550;7.060;2023-12-29T01:44:15;4.37;;;2.33;;
6207;SDS011;3137;51.550;7.060;2023-12-29T01:46:44;2.40;;;2.40;;
6207;SDS011;3137;51.550;7.060;2023-12-29T01:49:15;2.37;;;2.17;;
6207;SDS011;3137;51.550;7.060;2023-12-29T01:51:44;5.30;;;2.93;;
6207;SDS011;3137;51.550;7.060;2023-12-29T01:54:14;2.23;;;2.13;;
6207;SDS011;3137;51.550;7.060;2023-12-29T01:56:41;2.67;;;2.60;;
6207;SDS011;3137;51.550;7.060;2023-12-29T01:59:08;6.00;;;2.70;;
6207;SDS011;3137;51.550;7.060;2023-12-29T02:01:47;3.97;;;2.37;;
6207;SDS011;3137;51.550;7.060;2023-12-29T02:04:14;2.90;;;2.20;;
6207;SDS011;3137;51.550;7.060;2023-12-29T02:06:43;5.60;;;2.50;;
6207;SDS011;3137;51.550;7.060;2023-12-29T02:09:09;3.50;;;2.77;;
6207;SDS011;3137;51.550;7.060;2023-12-29T02:11:38;9.13;;;2.80;;
6207;SDS011;3137;51.550;7.060;2023-12-29T02:14:05;9.87;;;2.90;;
6207;SDS011;3137;51.550;7.060;2023-12-29T02:16:45;2.90;;;2.70;;
6207;SDS011;3137;51.550;7.060;2023-12-29T02:19:39;7.53;;;3.00;;
6207;SDS011;3137;51.550;7.060;2023-12-29T02:22:10;4.30;;;3.27;;
6207;SDS011;3137;51.550;7.060;2023-12-29T02:24:38;4.80;;;2.90;;
6207;SDS011;3137;51.550;7.060;2023-12-29T02:30:11;4.67;;;4.07;;
6207;SDS011;3137;51.550;7.060;2023-12-29T02:32:41;7.20;;;3.57;;
6207;SDS011;3137;51.550;7.060;2023-12-29T02:35:09;7.40;;;3.40;;
6207;SDS011;3137;51.550;7.060;2023-12-29T02:37:38;14.40;;;4.37;;
6207;SDS011;3137;51.550;7.060;2023-12-29T02:40:06;10.00;;;2.67;;
6207;SDS011;3137;51.550;7.060;2023-12-29T02:42:34;6.30;;;3.43;;
6207;SDS011;3137;51.550;7.060;2023-12-29T02:45:01;5.00;;;3.50;;
6207;SDS011;3137;51.550;7.060;2023-12-29T02:47:27;3.60;;;3.13;;
6207;SDS011;3137;51.550;7.060;2023-12-29T02:49:54;7.97;;;3.90;;
6207;SDS011;3137;51.550;7.060;2023-12-29T02:52:21;3.60;;;3.30;;
6207;SDS011;3137;51.550;7.060;2023-12-29T02:54:47;3.67;;;3.37;;
6207;SDS011;3137;51.550;7.060;2023-12-29T02:57:14;6.53;;;3.40;;
6207;SDS011;3137;51.550;7.060;2023-12-29T02:59:40;9.73;;;3.50;;
6207;SDS011;3137;51.550;7.060;2023-12-29T03:02:06;3.17;;;3.00;;
6207;SDS011;3137;51.550;7.060;2023-12-29T03:04:33;3.97;;;3.47;;
6207;SDS011;3137;51.550;7.060;2023-12-29T03:07:00;5.03;;;3.40;;
6207;SDS011;3137;51.550;7.060;2023-12-29T03:09:26;6.23;;;4.23;;
6207;SDS011;3137;51.550;7.060;2023-12-29T03:11:53;8.13;;;3.13;;
6207;SDS011;3137;51.550;7.060;2023-12-29T03:14:19;6.70;;;3.37;;
6207;SDS011;3137;51.550;7.060;2023-12-29T03:16:45;8.40;;;3.07;;
6207;SDS011;3137;51.550;7.060;2023-12-29T03:19:12;5.87;;;3.40;;
6207;SDS011;3137;51.550;7.060;2023-12-29T03:21:38;8.10;;;3.23;;
6207;SDS011;3137;51.550;7.060;2023-12-29T03:24:05;5.33;;;3.17;;
6207;SDS011;3137;51.550;7.060;2023-12-29T03:26:31;4.47;;;3.13;;
6207;SDS011;3137;51.550;7.060;2023-12-29T03:28:58;9.27;;;3.13;;
6207;SDS011;3137;51.550;7.060;2023-12-29T03:31:24;3.57;;;3.20;;
6207;SDS011;3137;51.550;7.060;2023-12-29T03:33:51;13.17;;;3.83;;
6207;SDS011;3137;51.550;7.060;2023-12-29T03:36:18;15.33;;;4.37;;
6207;SDS011;3137;51.550;7.060;2023-12-29T03:38:44;6.63;;;3.13;;
6207;SDS011;3137;51.550;7.060;2023-12-29T03:41:11;8.57;;;2.50;;
6207;SDS011;3137;51.550;7.060;2023-12-29T03:43:37;3.57;;;2.60;;
6207;SDS011;3137;51.550;7.060;2023-12-29T03:46:14;7.10;;;3.07;;
6207;SDS011;3137;51.550;7.060;2023-12-29T03:48:41;2.80;;;2.60;;
6207;SDS011;3137;51.550;7.060;2023-12-29T03:51:08;6.73;;;2.37;;
6207;SDS011;3137;51.550;7.060;2023-12-29T03:53:34;7.67;;;2.80;;
6207;SDS011;3137;51.550;7.060;2023-12-29T03:56:04;6.43;;;2.67;;
6207;SDS011;3137;51.550;7.060;2023-12-29T03:58:33;5.20;;;3.10;;
6207;SDS011;3137;51.550;7.060;2023-12-29T04:00:59;4.67;;;2.53;;
6207;SDS011;3137;51.550;7.060;2023-12-29T04:03:26;9.23;;;3.17;;
6207;SDS011;3137;51.550;7.060;2023-12-29T04:05:53;7.67;;;3.80;;
6207;SDS011;3137;51.550;7.060;2023-12-29T04:08:19;3.50;;;2.80;;
6207;SDS011;3137;51.550;7.060;2023-12-29T04:10:45;3.57;;;2.40;;
6207;SDS011;3137;51.550;7.060;2023-12-29T04:13:12;8.73;;;3.53;;
6207;SDS011;3137;51.550;7.060;2023-12-29T04:15:40;6.47;;;3.70;;
6207;SDS011;3137;51.550;7.060;2023-12-29T04:18:07;9.30;;;3.23;;
6207;SDS011;3137;51.550;7.060;2023-12-29T04:20:33;8.87;;;2.57;;
6207;SDS011;3137;51.550;7.060;2023-12-29T04:23:00;7.13;;;3.23;;
6207;SDS011;3137;51.550;7.060;2023-12-29T04:25:27;3.30;;;3.10;;
6207;SDS011;3137;51.550;7.060;2023-12-29T04:27:54;8.50;;;3.57;;
6207;SDS011;3137;51.550;7.060;2023-12-29T04:30:21;11.73;;;3.60;;
6207;SDS011;3137;51.550;7.060;2023-12-29T04:32:47;8.07;;;2.50;;
6207;SDS011;3137;51.550;7.060;2023-12-29T04:35:15;3.43;;;3.10;;
6207;SDS011;3137;51.550;7.060;2023-12-29T04:37:45;6.70;;;3.13;;
6207;SDS011;3137;51.550;7.060;2023-12-29T04:40:15;7.20;;;3.60;;
6207;SDS011;3137;51.550;7.060;2023-12-29T04:42:42;6.60;;;3.33;;
6207;SDS011;3137;51.550;7.060;2023-12-29T04:45:09;4.80;;;3.60;;
6207;SDS011;3137;51.550;7.060;2023-12-29T04:47:36;5.47;;;3.57;;
6207;SDS011;3137;51.550;7.060;2023-12-29T04:50:03;3.73;;;3.47;;
6207;SDS011;3137;51.550;7.060;2023-12-29T04:52:32;8.30;;;3.10;;
6207;SDS011;3137;51.550;7.060;2023-12-29T04:54:58;6.80;;;3.00;;
6207;SDS011;3137;51.550;7.060;2023-12-29T04:57:25;4.57;;;3.23;;
6207;SDS011;3137;51.550;7.060;2023-12-29T04:59:52;18.23;;;4.07;;
6207;SDS011;3137;51.550;7.060;2023-12-29T05:02:18;12.53;;;3.73;;
6207;SDS011;3137;51.550;7.060;2023-12-29T05:04:45;5.00;;;3.37;;
6207;SDS011;3137;51.550;7.060;2023-12-29T05:07:12;10.43;;;2.80;;
6207;SDS011;3137;51.550;7.060;2023-12-29T05:09:39;10.00;;;3.37;;
6207;SDS011;3137;51.550;7.060;2023-12-29T05:12:06;11.23;;;2.87;;
6207;SDS011;3137;51.550;7.060;2023-12-29T05:14:33;11.73;;;2.80;;
6207;SDS011;3137;51.550;7.060;2023-12-29T05:16:59;3.90;;;3.47;;
6207;SDS011;3137;51.550;7.060;2023-12-29T05:19:25;4.07;;;2.50;;
6207;SDS011;3137;51.550;7.060;2023-12-29T05:21:52;4.33;;;3.13;;
6207;SDS011;3137;51.550;7.060;2023-12-29T05:24:20;4.13;;;2.40;;
6207;SDS011;3137;51.550;7.060;2023-12-29T05:26:46;5.53;;;3.57;;
6207;SDS011;3137;51.550;7.060;2023-12-29T05:29:13;9.03;;;3.33;;
6207;SDS011;3137;51.550;7.060;2023-12-29T05:31:40;4.20;;;2.43;;
6207;SDS011;3137;51.550;7.060;2023-12-29T05:34:06;4.53;;;3.17;;
6207;SDS011;3137;51.550;7.060;2023-12-29T05:36:36;4.07;;;3.17;;
6207;SDS011;3137;51.550;7.060;2023-12-29T05:39:03;6.17;;;2.80;;
6207;SDS011;3137;51.550;7.060;2023-12-29T05:41:30;5.03;;;3.00;;
6207;SDS011;3137;51.550;7.060;2023-12-29T05:43:56;10.47;;;3.17;;
6207;SDS011;3137;51.550;7.060;2023-12-29T05:46:24;5.17;;;2.93;;
6207;SDS011;3137;51.550;7.060;2023-12-29T05:48:50;5.80;;;2.83;;
6207;SDS011;3137;51.550;7.060;2023-12-29T05:51:18;5.80;;;2.63;;
6207;SDS011;3137;51.550;7.060;2023-12-29T05:53:46;11.73;;;3.30;;
6207;SDS011;3137;51.550;7.060;2023-12-29T05:56:13;8.03;;;2.33;;
6207;SDS011;3137;51.550;7.060;2023-12-29T05:58:40;3.10;;;2.80;;
6207;SDS011;3137;51.550;7.060;2023-12-29T06:01:08;6.00;;;2.13;;
6207;SDS011;3137;51.550;7.060;2023-12-29T06:03:35;4.40;;;2.30;;
6207;SDS011;3137;51.550;7.060;2023-12-29T06:06:02;14.07;;;2.50;;
6207;SDS011;3137;51.550;7.060;2023-12-29T06:08:28;5.23;;;2.97;;
6207;SDS011;3137;51.550;7.060;2023-12-29T06:10:55;7.30;;;2.63;;
6207;SDS011;3137;51.550;7.060;2023-12-29T06:13:21;10.60;;;3.00;;
6207;SDS011;3137;51.550;7.060;2023-12-29T06:15:48;7.73;;;2.90;;
6207;SDS011;3137;51.550;7.060;2023-12-29T06:18:14;9.30;;;3.10;;
6207;SDS011;3137;51.550;7.060;2023-12-29T06:20:41;9.17;;;3.17;;
6207;SDS011;3137;51.550;7.060;2023-12-29T06:23:07;6.10;;;2.63;;
6207;SDS011;3137;51.550;7.060;2023-12-29T06:25:34;11.83;;;2.60;;
6207;SDS011;3137;51.550;7.060;2023-12-29T06:28:01;6.20;;;2.50;;
6207;SDS011;3137;51.550;7.060;2023-12-29T06:30:29;7.77;;;2.53;;
6207;SDS011;3137;51.550;7.060;2023-12-29T06:32:56;7.50;;;2.30;;
6207;SDS011;3137;51.550;7.060;2023-12-29T06:35:22;3.33;;;2.10;;
6207;SDS011;3137;51.550;7.060;2023-12-29T06:37:49;7.60;;;2.97;;
6207;SDS011;3137;51.550;7.060;2023-12-29T06:40:16;5.87;;;2.43;;
6207;SDS011;3137;51.550;7.060;2023-12-29T06:42:43;3.43;;;2.87;;
6207;SDS011;3137;51.550;7.060;2023-12-29T06:45:09;6.93;;;2.73;;
6207;SDS011;3137;51.550;7.060;2023-12-29T06:47:36;6.00;;;2.50;;
6207;SDS011;3137;51.550;7.060;2023-12-29T06:50:02;6.33;;;2.27;;
6207;SDS011;3137;51.550;7.060;2023-12-29T06:52:30;7.60;;;2.90;;
6207;SDS011;3137;51.550;7.060;2023-12-29T06:55:00;9.93;;;2.50;;
6207;SDS011;3137;51.550;7.060;2023-12-29T06:57:27;8.57;;;2.57;;
6207;SDS011;3137;51.550;7.060;2023-12-29T06:59:54;8.73;;;2.57;;
6207;SDS011;3137;51.550;7.060;2023-12-29T07:02:20;5.40;;;2.37;;
6207;SDS011;3137;51.550;7.060;2023-12-29T07:04:47;7.83;;;2.23;;
6207;SDS011;3137;51.550;7.060;2023-12-29T07:07:13;5.67;;;2.47;;
6207;SDS011;3137;51.550;7.060;2023-12-29T07:09:40;2.83;;;2.10;;
6207;SDS011;3137;51.550;7.060;2023-12-29T07:12:06;5.23;;;2.90;;
6207;SDS011;3137;51.550;7.060;2023-12-29T07:14:33;15.00;;;2.67;;
6207;SDS011;3137;51.550;7.060;2023-12-29T07:17:02;5.67;;;1.90;;
6207;SDS011;3137;51.550;7.060;2023-12-29T07:19:28;2.50;;;2.30;;
6207;SDS011;3137;51.550;7.060;2023-12-29T07:22:06;5.87;;;2.77;;
6207;SDS011;3137;51.550;7.060;2023-12-29T07:24:34;10.13;;;2.60;;
6207;SDS011;3137;51.550;7.060;2023-12-29T07:27:02;2.97;;;2.23;;
6207;SDS011;3137;51.550;7.060;2023-12-29T07:29:29;5.00;;;2.00;;
6207;SDS011;3137;51.550;7.060;2023-12-29T07:31:55;4.50;;;3.07;;
6207;SDS011;3137;51.550;7.060;2023-12-29T07:34:22;2.77;;;2.57;;
6207;SDS011;3137;51.550;7.060;2023-12-29T07:36:48;5.80;;;2.30;;
6207;SDS011;3137;51.550;7.060;2023-12-29T07:39:15;5.00;;;2.20;;
6207;SDS011;3137;51.550;7.060;2023-12-29T07:41:41;3.40;;;2.50;;
6207;SDS011;3137;51.550;7.060;2023-12-29T07:44:11;8.53;;;2.70;;
6207;SDS011;3137;51.550;7.060;2023-12-29T07:46:39;3.40;;;2.47;;
6207;SDS011;3137;51.550;7.060;2023-12-29T07:49:06;4.73;;;2.80;;
6207;SDS011;3137;51.550;7.060;2023-12-29T07:51:33;7.63;;;3.00;;
6207;SDS011;3137;51.550;7.060;2023-12-29T07:54:00;5.20;;;2.50;;
6207;SDS011;3137;51.550;7.060;2023-12-29T07:56:27;2.33;;;2.13;;
6207;SDS011;3137;51.550;7.060;2023-12-29T07:58:53;9.90;;;2.73;;
6207;SDS011;3137;51.550;7.060;2023-12-29T08:01:20;6.37;;;2.10;;
6207;SDS011;3137;51.550;7.060;2023-12-29T08:03:46;6.03;;;2.40;;
6207;SDS011;3137;51.550;7.060;2023-12-29T08:06:13;4.23;;;2.03;;
6207;SDS011;3137;51.550;7.060;2023-12-29T08:08:39;5.43;;;2.57;;
6207;SDS011;3137;51.550;7.060;2023-12-29T08:11:12;3.93;;;2.30;;
6207;SDS011;3137;51.550;7.060;2023-12-29T08:13:39;8.80;;;2.03;;
6207;SDS011;3137;51.550;7.060;2023-12-29T08:16:06;2.57;;;2.17;;
6207;SDS011;3137;51.550;7.060;2023-12-29T08:18:34;5.97;;;2.33;;
6207;SDS011;3137;51.550;7.060;2023-12-29T08:21:01;2.43;;;2.03;;
6207;SDS011;3137;51.550;7.060;2023-12-29T08:23:28;8.27;;;2.20;;
6207;SDS011;3137;51.550;7.060;2023-12-29T08:25:59;6.60;;;2.23;;
6207;SDS011;3137;51.550;7.060;2023-12-29T08:28:26;9.87;;;1.80;;
6207;SDS011;3137;51.550;7.060;2023-12-29T08:30:52;2.50;;;2.30;;
6207;SDS011;3137;51.550;7.060;2023-12-29T08:33:19;5.30;;;2.27;;
6207;SDS011;3137;51.550;7.060;2023-12-29T08:35:45;6.50;;;2.10;;
6207;SDS011;3137;51.550;7.060;2023-12-29T08:38:12;4.77;;;2.10;;
6207;SDS011;3137;51.550;7.060;2023-12-29T08:40:39;2.63;;;2.13;;
6207;SDS011;3137;51.550;7.060;2023-12-29T08:43:07;4.70;;;1.80;;
6207;SDS011;3137;51.550;7.060;2023-12-29T08:45:34;2.43;;;2.33;;
6207;SDS011;3137;51.550;7.060;2023-12-29T08:48:01;5.33;;;1.77;;
6207;SDS011;3137;51.550;7.060;2023-12-29T08:50:29;2.97;;;2.10;;
6207;SDS011;3137;51.550;7.060;2023-12-29T08:52:56;4.47;;;1.73;;
6207;SDS011;3137;51.550;7.060;2023-12-29T08:55:22;7.60;;;1.90;;
6207;SDS011;3137;51.550;7.060;2023-12-29T08:57:49;3.83;;;1.67;;
6207;SDS011;3137;51.550;7.060;2023-12-29T09:00:15;3.23;;;2.13;;
6207;SDS011;3137;51.550;7.060;2023-12-29T09:02:42;4.27;;;2.13;;
6207;SDS011;3137;51.550;7.060;2023-12-29T09:05:09;3.70;;;1.80;;
6207;SDS011;3137;51.550;7.060;2023-12-29T09:07:36;1.87;;;1.87;;
6207;SDS011;3137;51.550;7.060;2023-12-29T09:10:02;1.57;;;1.50;;
6207;SDS011;3137;51.550;7.060;2023-12-29T09:12:34;1.70;;;1.60;;
6207;SDS011;3137;51.550;7.060;2023-12-29T09:15:00;1.43;;;1.37;;
6207;SDS011;3137;51.550;7.060;2023-12-29T09:17:27;2.60;;;1.40;;
6207;SDS011;3137;51.550;7.060;2023-12-29T09:19:53;4.43;;;2.00;;
6207;SDS011;3137;51.550;7.060;2023-12-29T09:22:32;1.83;;;1.73;;
6207;SDS011;3137;51.550;7.060;2023-12-29T09:24:58;5.20;;;1.60;;
6207;SDS011;3137;51.550;7.060;2023-12-29T09:27:24;1.80;;;1.63;;
6207;SDS011;3137;51.550;7.060;2023-12-29T09:29:51;6.67;;;1.73;;
6207;SDS011;3137;51.550;7.060;2023-12-29T09:32:17;1.20;;;1.20;;
6207;SDS011;3137;51.550;7.060;2023-12-29T09:34:44;1.93;;;1.93;;
6207;SDS011;3137;51.550;7.060;2023-12-29T09:37:10;5.33;;;2.53;;
6207;SDS011;3137;51.550;7.060;2023-12-29T09:39:37;3.10;;;1.70;;
6207;SDS011;3137;51.550;7.060;2023-12-29T09:42:03;2.57;;;1.67;;
6207;SDS011;3137;51.550;7.060;2023-12-29T09:44:31;1.53;;;1.53;;
6207;SDS011;3137;51.550;7.060;2023-12-29T09:47:02;2.07;;;1.90;;
6207;SDS011;3137;51.550;7.060;2023-12-29T09:49:30;1.93;;;1.67;;
6207;SDS011;3137;51.550;7.060;2023-12-29T09:52:04;1.80;;;1.23;;
6207;SDS011;3137;51.550;7.060;2023-12-29T09:54:33;1.00;;;1.00;;
6207;SDS011;3137;51.550;7.060;2023-12-29T09:57:01;1.50;;;1.30;;
6207;SDS011;3137;51.550;7.060;2023-12-29T09:59:30;1.33;;;1.33;;
6207;SDS011;3137;51.550;7.060;2023-12-29T10:02:00;1.30;;;1.30;;
6207;SDS011;3137;51.550;7.060;2023-12-29T10:04:29;1.30;;;1.20;;
6207;SDS011;3137;51.550;7.060;2023-12-29T10:06:56;1.90;;;1.20;;
6207;SDS011;3137;51.550;7.060;2023-12-29T10:09:30;1.47;;;1.47;;
6207;SDS011;3137;51.550;7.060;2023-12-29T10:11:58;1.90;;;1.53;;
6207;SDS011;3137;51.550;7.060;2023-12-29T10:20:50;1.53;;;1.53;;
6207;SDS011;3137;51.550;7.060;2023-12-29T10:26:21;1.30;;;1.30;;
6207;SDS011;3137;51.550;7.060;2023-12-29T10:28:49;1.47;;;1.47;;
6207;SDS011;3137;51.550;7.060;2023-12-29T10:31:16;1.37;;;1.37;;
6207;SDS011;3137;51.550;7.060;2023-12-29T10:33:43;1.60;;;1.50;;
6207;SDS011;3137;51.550;7.060;2023-12-29T10:36:09;1.43;;;1.43;;
6207;SDS011;3137;51.550;7.060;2023-12-29T10:38:38;2.67;;;1.43;;
6207;SDS011;3137;51.550;7.060;2023-12-29T10:43:41;1.20;;;1.20;;
6207;SDS011;3137;51.550;7.060;2023-12-29T10:46:09;1.67;;;1.67;;
6207;SDS011;3137;51.550;7.060;2023-12-29T10:48:37;1.50;;;1.40;;
6207;SDS011;3137;51.550;7.060;2023-12-29T10:51:04;8.87;;;2.00;;
6207;SDS011;3137;51.550;7.060;2023-12-29T10:53:35;2.60;;;1.90;;
6207;SDS011;3137;51.550;7.060;2023-12-29T10:56:24;2.20;;;2.20;;
6207;SDS011;3137;51.550;7.060;2023-12-29T10:59:02;5.70;;;1.67;;
6207;SDS011;3137;51.550;7.060;2023-12-29T11:01:30;1.53;;;1.53;;
6207;SDS011;3137;51.550;7.060;2023-12-29T11:03:58;2.07;;;1.97;;
6207;SDS011;3137;51.550;7.060;2023-12-29T11:06:39;1.80;;;1.80;;
6207;SDS011;3137;51.550;7.060;2023-12-29T11:09:13;2.10;;;2.10;;
6207;SDS011;3137;51.550;7.060;2023-12-29T11:11:40;1.93;;;1.93;;
6207;SDS011;3137;51.550;7.060;2023-12-29T11:14:08;1.70;;;1.60;;
6207;SDS011;3137;51.550;7.060;2023-12-29T11:16:37;2.13;;;2.07;;
6207;SDS011;3137;51.550;7.060;2023-12-29T11:19:05;2.17;;;1.97;;
6207;SDS011;3137;51.550;7.060;2023-12-29T11:21:33;5.53;;;1.70;;
6207;SDS011;3137;51.550;7.060;2023-12-29T11:24:01;1.63;;;1.53;;
6207;SDS011;3137;51.550;7.060;2023-12-29T11:26:28;5.77;;;2.00;;
6207;SDS011;3137;51.550;7.060;2023-12-29T11:28:55;3.97;;;1.87;;
6207;SDS011;3137;51.550;7.060;2023-12-29T11:31:21;7.00;;;2.17;;
6207;SDS011;3137;51.550;7.060;2023-12-29T11:34:00;2.63;;;1.50;;
6207;SDS011;3137;51.550;7.060;2023-12-29T11:36:33;2.57;;;1.80;;
6207;SDS011;3137;51.550;7.060;2023-12-29T11:39:06;1.33;;;1.30;;
6207;SDS011;3137;51.550;7.060;2023-12-29T11:44:32;3.53;;;1.43;;
6207;SDS011;3137;51.550;7.060;2023-12-29T11:46:59;1.67;;;1.60;;
6207;SDS011;3137;51.550;7.060;2023-12-29T11:49:57;1.80;;;1.70;;
6207;SDS011;3137;51.550;7.060;2023-12-29T11:52:32;1.77;;;1.77;;
6207;SDS011;3137;51.550;7.060;2023-12-29T11:55:12;5.30;;;2.00;;
6207;SDS011;3137;51.550;7.060;2023-12-29T11:57:41;1.93;;;1.90;;
6207;SDS011;3137;51.550;7.060;2023-12-29T12:00:08;4.07;;;2.40;;
6207;SDS011;3137;51.550;7.060;2023-12-29T12:02:38;4.23;;;2.10;;
6207;SDS011;3137;51.550;7.060;2023-12-29T12:05:05;1.87;;;1.67;;
6207;SDS011;3137;51.550;7.060;2023-12-29T12:12:47;3.23;;;1.13;;
6207;SDS011;3137;51.550;7.060;2023-12-29T12:18:04;1.90;;;1.80;;
6207;SDS011;3137;51.550;7.060;2023-12-29T12:20:35;2.87;;;1.97;;
6207;SDS011;3137;51.550;7.060;2023-12-29T12:23:12;2.07;;;1.97;;
6207;SDS011;3137;51.550;7.060;2023-12-29T12:25:44;2.07;;;1.87;;
6207;SDS011;3137;51.550;7.060;2023-12-29T12:28:13;8.90;;;3.10;;
6207;SDS011;3137;51.550;7.060;2023-12-29T12:30:40;2.03;;;1.97;;
6207;SDS011;3137;51.550;7.060;2023-12-29T12:33:07;2.17;;;2.07;;
6207;SDS011;3137;51.550;7.060;2023-12-29T12:35:37;3.00;;;2.30;;
6207;SDS011;3137;51.550;7.060;2023-12-29T12:38:11;1.83;;;1.83;;
6207;SDS011;3137;51.550;7.060;2023-12-29T12:40:40;2.33;;;2.33;;
6207;SDS011;3137;51.550;7.060;2023-12-29T12:43:07;2.33;;;2.20;;
6207;SDS011;3137;51.550;7.060;2023-12-29T12:45:35;2.87;;;2.23;;
6207;SDS011;3137;51.550;7.060;2023-12-29T12:51:02;8.53;;;2.87;;
6207;SDS011;3137;51.550;7.060;2023-12-29T12:53:29;6.23;;;2.80;;
6207;SDS011;3137;51.550;7.060;2023-12-29T12:55:56;2.40;;;2.30;;
6207;SDS011;3137;51.550;7.060;2023-12-29T12:58:23;2.20;;;2.10;;
6207;SDS011;3137;51.550;7.060;2023-12-29T13:00:51;4.53;;;2.23;;
6207;SDS011;3137;51.550;7.060;2023-12-29T13:03:21;3.37;;;1.87;;
6207;SDS011;3137;51.550;7.060;2023-12-29T13:05:49;1.97;;;1.87;;
6207;SDS011;3137;51.550;7.060;2023-12-29T13:08:16;3.03;;;2.03;;
6207;SDS011;3137;51.550;7.060;2023-12-29T13:10:59;3.70;;;1.97;;
6207;SDS011;3137;51.550;7.060;2023-12-29T13:13:39;7.47;;;2.90;;
6207;SDS011;3137;51.550;7.060;2023-12-29T13:16:06;4.77;;;2.50;;
6207;SDS011;3137;51.550;7.060;2023-12-29T13:18:33;2.37;;;2.30;;
6207;SDS011;3137;51.550;7.060;2023-12-29T13:21:03;2.47;;;2.30;;
6207;SDS011;3137;51.550;7.060;2023-12-29T13:23:33;2.27;;;2.13;;
6207;SDS011;3137;51.550;7.060;2023-12-29T13:26:01;3.60;;;2.90;;
6207;SDS011;3137;51.550;7.060;2023-12-29T13:28:31;2.17;;;2.17;;
6207;SDS011;3137;51.550;7.060;2023-12-29T13:31:02;2.93;;;2.67;;
6207;SDS011;3137;51.550;7.060;2023-12-29T13:33:43;2.20;;;2.20;;
6207;SDS011;3137;51.550;7.060;2023-12-29T13:39:07;4.20;;;3.90;;
6207;SDS011;3137;51.550;7.060;2023-12-29T13:41:39;4.97;;;4.60;;
6207;SDS011;3137;51.550;7.060;2023-12-29T13:44:06;5.23;;;5.03;;
6207;SDS011;3137;51.550;7.060;2023-12-29T13:46:34;6.47;;;5.83;;
6207;SDS011;3137;51.550;7.060;2023-12-29T13:49:02;6.77;;;6.27;;
6207;SDS011;3137;51.550;7.060;2023-12-29T13:51:30;6.43;;;5.73;;
6207;SDS011;3137;51.550;7.060;2023-12-29T13:53:57;6.13;;;5.80;;
6207;SDS011;3137;51.550;7.060;2023-12-29T13:56:27;5.70;;;5.33;;
6207;SDS011;3137;51.550;7.060;2023-12-29T13:58:55;6.27;;;5.33;;
6207;SDS011;3137;51.550;7.060;2023-12-29T14:01:22;1.53;;;1.53;;
6207;SDS011;3137;51.550;7.060;2023-12-29T14:03:55;1.43;;;1.33;;
6207;SDS011;3137;51.550;7.060;2023-12-29T14:06:40;2.97;;;1.20;;
6207;SDS011;3137;51.550;7.060;2023-12-29T14:09:15;1.20;;;1.20;;
6207;SDS011;3137;51.550;7.060;2023-12-29T14:11:44;1.27;;;1.27;;
6207;SDS011;3137;51.550;7.060;2023-12-29T14:14:14;2.20;;;2.17;;
6207;SDS011;3137;51.550;7.060;2023-12-29T14:16:40;10.33;;;4.67;;
6207;SDS011;3137;51.550;7.060;2023-12-29T14:19:07;12.43;;;5.77;;
6207;SDS011;3137;51.550;7.060;2023-12-29T14:21:34;7.33;;;5.33;;
6207;SDS011;3137;51.550;7.060;2023-12-29T14:24:01;5.37;;;5.13;;
6207;SDS011;3137;51.550;7.060;2023-12-29T14:26:33;7.03;;;4.70;;
6207;SDS011;3137;51.550;7.060;2023-12-29T14:29:06;6.83;;;4.03;;
6207;SDS011;3137;51.550;7.060;2023-12-29T14:31:39;4.30;;;3.83;;
6207;SDS011;3137;51.550;7.060;2023-12-29T14:34:10;4.83;;;3.70;;
6207;SDS011;3137;51.550;7.060;2023-12-29T14:36:38;3.93;;;3.30;;
6207;SDS011;3137;51.550;7.060;2023-12-29T14:39:05;3.50;;;3.30;;
6207;SDS011;3137;51.550;7.060;2023-12-29T14:41:32;3.97;;;3.77;;
6207;SDS011;3137;51.550;7.060;2023-12-29T14:43:59;3.17;;;2.83;;
6207;SDS011;3137;51.550;7.060;2023-12-29T14:46:26;10.00;;;2.73;;
6207;SDS011;3137;51.550;7.060;2023-12-29T14:48:53;2.10;;;2.00;;
6207;SDS011;3137;51.550;7.060;2023-12-29T14:51:22;4.87;;;2.97;;
6207;SDS011;3137;51.550;7.060;2023-12-29T14:53:49;2.90;;;2.70;;
6207;SDS011;3137;51.550;7.060;2023-12-29T14:56:16;2.33;;;2.33;;
6207;SDS011;3137;51.550;7.060;2023-12-29T14:58:43;3.37;;;3.10;;
6207;SDS011;3137;51.550;7.060;2023-12-29T15:01:10;3.40;;;2.73;;
6207;SDS011;3137;51.550;7.060;2023-12-29T15:03:37;3.53;;;3.43;;
6207;SDS011;3137;51.550;7.060;2023-12-29T15:06:03;2.30;;;2.30;;
6207;SDS011;3137;51.550;7.060;2023-12-29T15:08:30;2.77;;;2.77;;
6207;SDS011;3137;51.550;7.060;2023-12-29T15:11:04;3.03;;;2.60;;
6207;SDS011;3137;51.550;7.060;2023-12-29T15:13:32;5.27;;;2.03;;
6207;SDS011;3137;51.550;7.060;2023-12-29T15:15:59;1.60;;;1.60;;
6207;SDS011;3137;51.550;7.060;2023-12-29T15:18:27;4.23;;;2.07;;
6207;SDS011;3137;51.550;7.060;2023-12-29T15:20:56;3.00;;;2.80;;
6207;SDS011;3137;51.550;7.060;2023-12-29T15:23:23;2.37;;;2.20;;
6207;SDS011;3137;51.550;7.060;2023-12-29T15:25:50;1.70;;;1.60;;
6207;SDS011;3137;51.550;7.060;2023-12-29T15:28:17;1.53;;;1.43;;
6207;SDS011;3137;51.550;7.060;2023-12-29T15:30:44;7.43;;;2.03;;
6207;SDS011;3137;51.550;7.060;2023-12-29T15:33:12;2.57;;;1.70;;
6207;SDS011;3137;51.550;7.060;2023-12-29T15:35:40;1.73;;;1.63;;
6207;SDS011;3137;51.550;7.060;2023-12-29T15:38:07;7.27;;;2.27;;
6207;SDS011;3137;51.550;7.060;2023-12-29T15:40:34;2.57;;;2.37;;
6207;SDS011;3137;51.550;7.060;2023-12-29T15:43:01;2.47;;;2.37;;
6207;SDS011;3137;51.550;7.060;2023-12-29T15:45:30;5.17;;;2.67;;
6207;SDS011;3137;51.550;7.060;2023-12-29T15:47:59;2.30;;;2.20;;
6207;SDS011;3137;51.550;7.060;2023-12-29T15:50:26;4.90;;;2.20;;
6207;SDS011;3137;51.550;7.060;2023-12-29T15:52:53;1.90;;;1.80;;